| time (UTC) | temp F | wind direction | speed MPH | gust MPH | rain 1hr in | rain 24hr in | rain mn in | humidity % | barometer mb |
| 20260505162447 | 47 | 128 | 0.0 | 8.0 | 0.00 | 0.53 | 0.54 | 92 | 1011.4 |
| 20260505161501 | 47 | 127 | 0.0 | 8.0 | 0.06 | 0.53 | 0.54 | 92 | 1011.9 |
| 20260505160430 | 48 | 101 | 0.0 | 2.0 | 0.16 | 0.52 | 0.52 | 92 | 1011.6 |
| 20260505153201 | 48 | 355 | 0.0 | 5.0 | 0.00 | 0.49 | 0.49 | 93 | 1011.2 |
| 20260505151034 | 48 | 138 | 0.0 | 3.0 | 0.00 | 0.49 | 0.49 | 93 | 1011.1 |
| 20260505124828 | 48 | 82 | 0.0 | 2.0 | 0.00 | 0.39 | 0.38 | 90 | 1008.6 |
| 20260505123805 | 49 | 109 | 0.0 | 2.0 | 0.04 | 0.39 | 0.38 | 90 | 1008.3 |
| 20260505122800 | 48 | 109 | 0.0 | 1.0 | 0.00 | 0.38 | 0.38 | 90 | 1008.4 |
| 20260505121740 | 48 | 109 | 0.0 | 0.0 | 0.00 | 0.38 | 0.38 | 89 | 1008.5 |
| 20260505120753 | 49 | 109 | 0.0 | 1.0 | 0.00 | 0.36 | 0.37 | 89 | 1008.3 |
| 20260505115803 | 49 | 109 | 0.0 | 3.0 | 0.04 | 0.36 | 0.37 | 88 | 1008.1 |
| 20260505113621 | 49 | 134 | 0.0 | 4.0 | 0.00 | 0.36 | 0.36 | 86 | 1008.2 |
| 20260505112625 | 49 | 104 | 0.0 | 3.0 | 0.00 | 0.35 | 0.35 | 86 | 1008.2 |
| 20260505111551 | 49 | 274 | 0.0 | 5.0 | 0.00 | 0.35 | 0.35 | 86 | 1008.0 |
| 20260505110556 | 49 | 15 | 0.0 | 3.0 | 0.00 | 0.35 | 0.35 | 87 | 1007.4 |
| 20260505101534 | 49 | 17 | 0.0 | 0.0 | 0.00 | 0.35 | 0.35 | 89 | 1007.7 |
| 20260505100542 | 49 | 17 | 0.0 | 4.0 | 0.00 | 0.35 | 0.35 | 88 | 1007.6 |
| 20260505095607 | 49 | 28 | 0.0 | 4.0 | 0.00 | 0.35 | 0.35 | 89 | 1007.6 |
| 20260505094535 | 49 | 132 | 0.0 | 2.0 | 0.00 | 0.35 | 0.35 | 89 | 1007.8 |
| 20260505093527 | 49 | 43 | 0.0 | 0.0 | 0.00 | 0.35 | 0.35 | 88 | 1007.7 |
| 20260505092455 | 48 | 42 | 0.0 | 4.0 | 0.00 | 0.35 | 0.35 | 88 | 1007.2 |
| 20260505091516 | 48 | 71 | 0.0 | 6.0 | 0.00 | 0.35 | 0.35 | 88 | 1006.9 |
| 20260505085343 | 49 | 141 | 1.0 | 6.0 | 0.00 | 0.35 | 0.35 | 88 | 1006.0 |
| 20260505084317 | 49 | 304 | 1.0 | 8.0 | 0.00 | 0.35 | 0.35 | 88 | 1005.9 |
| 20260505083242 | 49 | 201 | 2.0 | 11.0 | 0.04 | 0.33 | 0.34 | 88 | 1005.3 |
| 20260505082249 | 49 | 102 | 3.0 | 11.0 | 0.10 | 0.33 | 0.34 | 88 | 1004.6 |
| 20260505081228 | 50 | 82 | 0.0 | 7.0 | 0.40 | 0.31 | 0.32 | 87 | 1005.3 |
| 20260505080227 | 50 | 117 | 0.0 | 2.0 | 0.27 | 0.26 | 0.27 | 86 | 1006.6 |
| 20260505075159 | 51 | 114 | 0.0 | 0.0 | 0.24 | 0.23 | 0.24 | 85 | 1007.4 |
| 20260505071925 | 53 | 302 | 0.0 | 5.0 | 0.10 | 0.13 | 0.13 | 74 | 1007.5 |
| 20260505070929 | 54 | 329 | 1.0 | 6.0 | 0.00 | 0.12 | 0.12 | 69 | 1006.4 |
| 20260505065908 | 55 | 34 | 1.0 | 7.0 | 0.00 | 0.12 | 0.12 | 71 | 1005.5 |
| 20260505064914 | 55 | 138 | 1.0 | 7.0 | 0.00 | 0.12 | 0.12 | 74 | 1006.0 |
| 20260505063917 | 56 | 158 | 1.0 | 5.0 | 0.00 | 0.10 | 0.10 | 78 | 1004.8 |
| 20260505061751 | 57 | 345 | 0.0 | 4.0 | 0.00 | 0.10 | 0.10 | 85 | 1004.9 |
| 20260505060722 | 58 | 265 | 0.0 | 3.0 | 0.00 | 0.10 | 0.10 | 87 | 1004.3 |
| 20260505055714 | 58 | 216 | 0.0 | 0.0 | 0.00 | 0.10 | 0.10 | 87 | 1003.7 |
| 20260505054730 | 58 | 215 | 0.0 | 1.0 | 0.00 | 0.10 | 0.10 | 85 | 1003.3 |
| 20260505053752 | 59 | 215 | 0.0 | 0.0 | 0.08 | 0.10 | 0.10 | 82 | 1003.5 |
| 20260505052720 | 60 | 120 | 0.0 | 1.0 | 0.10 | 0.09 | 0.09 | 75 | 1003.6 |
| 20260505051730 | 64 | 355 | 1.0 | 8.0 | 0.10 | 0.04 | 0.04 | 65 | 1003.2 |
| 20260505050702 | 70 | 74 | 2.0 | 11.0 | 0.00 | 0.00 | 0.00 | 48 | 1003.3 |
| 20260505040252 | 73 | 163 | 2.0 | 12.0 | 0.00 | 0.00 | 0.00 | 67 | 1001.7 |
| 20260505035244 | 73 | 187 | 2.0 | 9.0 | 0.00 | 0.00 | 0.00 | 67 | 1001.8 |
| 20260505033123 | 73 | 188 | 1.0 | 8.0 | 0.00 | 0.00 | 0.00 | 65 | 1001.9 |
| 20260505032140 | 74 | 203 | 1.0 | 6.0 | 0.00 | 0.00 | 0.00 | 64 | 1001.8 |
| 20260505031146 | 74 | 192 | 1.0 | 5.0 | 0.00 | 0.00 | 0.00 | 63 | 1001.7 |
| 20260505030202 | 74 | 198 | 0.0 | 5.0 | 0.00 | 0.00 | 0.00 | 61 | 1001.6 |
| 20260505022915 | 74 | 191 | 0.0 | 1.0 | 0.00 | 0.00 | 0.00 | 57 | 1001.2 |
| 20260505021903 | 74 | 272 | 0.0 | 0.0 | 0.00 | 0.00 | 0.00 | 55 | 1001.0 |
| 20260505020850 | 74 | 275 | 0.0 | 0.0 | 0.00 | 0.00 | 0.00 | 54 | 1000.9 |
| 20260505012448 | 77 | 277 | 0.0 | 0.0 | 0.00 | 0.00 | 0.00 | 50 | 1000.4 |
| 20260505011457 | 78 | 277 | 0.0 | 0.0 | 0.00 | 0.00 | 0.00 | 49 | 1000.3 |
| 20260505010424 | 78 | 277 | 0.0 | 0.0 | 0.00 | 0.00 | 0.00 | 48 | 1000.0 |
| 20260505005449 | 79 | 277 | 0.0 | 0.0 | 0.00 | 0.00 | 0.00 | 47 | 1000.0 |
| 20260505004421 | 80 | 277 | 0.0 | 0.0 | 0.00 | 0.00 | 0.00 | 47 | 999.9 |
| 20260505002250 | 81 | 276 | 0.0 | 1.0 | 0.00 | 0.00 | 0.00 | 45 | 999.6 |
| 20260505000116 | 81 | 242 | 0.0 | 4.0 | 0.00 | 0.00 | 0.00 | 45 | 999.6 |
| 20260504235058 | 81 | 211 | 0.0 | 2.0 | 0.00 | 0.00 | 0.00 | 45 | 999.6 |
| 20260504234054 | 81 | 206 | 0.0 | 5.0 | 0.00 | 0.00 | 0.00 | 44 | 999.7 |
| 20260504233055 | 81 | 196 | 0.0 | 4.0 | 0.00 | 0.00 | 0.00 | 44 | 999.8 |
| 20260504232117 | 82 | 203 | 0.0 | 10.0 | 0.00 | 0.00 | 0.00 | 42 | 999.7 |
| 20260504231122 | 83 | 267 | 1.0 | 10.0 | 0.00 | 0.00 | 0.00 | 41 | 999.7 |
| 20260504223958 | 81 | 254 | 1.0 | 6.0 | 0.00 | 0.00 | 0.00 | 43 | 999.8 |
| 20260504222929 | 82 | 286 | 1.0 | 6.0 | 0.00 | 0.00 | 0.00 | 42 | 999.8 |
| 20260504221916 | 82 | 178 | 0.0 | 1.0 | 0.00 | 0.00 | 0.00 | 42 | 999.9 |
| 20260504220902 | 82 | 283 | 1.0 | 7.0 | 0.00 | 0.00 | 0.00 | 40 | 999.8 |
| 20260504214743 | 82 | 202 | 1.0 | 8.0 | 0.00 | 0.00 | 0.00 | 41 | 1000.1 |
| 20260504213726 | 82 | 208 | 1.0 | 8.0 | 0.00 | 0.00 | 0.00 | 43 | 1000.1 |
| 20260504212659 | 82 | 142 | 1.0 | 8.0 | 0.00 | 0.00 | 0.00 | 41 | 1000.3 |
| 20260504211658 | 83 | 179 | 2.0 | 8.0 | 0.00 | 0.00 | 0.00 | 41 | 1000.2 |
| 20260504210631 | 84 | 221 | 1.0 | 11.0 | 0.00 | 0.00 | 0.00 | 40 | 1000.1 |
| 20260504205648 | 83 | 199 | 3.0 | 14.0 | 0.00 | 0.00 | 0.00 | 41 | 1000.3 |
| 20260504204655 | 83 | 188 | 3.0 | 14.0 | 0.00 | 0.00 | 0.00 | 40 | 1000.4 |
| 20260504203720 | 85 | 198 | 1.0 | 10.0 | 0.00 | 0.00 | 0.00 | 39 | 1000.5 |
| 20260504202726 | 84 | 321 | 2.0 | 10.0 | 0.00 | 0.00 | 0.00 | 41 | 1000.5 |
| 20260504201722 | 84 | 226 | 2.0 | 10.0 | 0.00 | 0.00 | 0.00 | 41 | 1000.5 |
| 20260504200737 | 83 | 180 | 2.0 | 10.0 | 0.00 | 0.00 | 0.00 | 41 | 1000.6 |
| 20260504195720 | 83 | 197 | 3.0 | 10.0 | 0.00 | 0.00 | 0.00 | 42 | 1000.7 |
| 20260504194655 | 83 | 192 | 3.0 | 10.0 | 0.00 | 0.00 | 0.00 | 42 | 1000.6 |
| 20260504193637 | 84 | 175 | 1.0 | 8.0 | 0.00 | 0.00 | 0.00 | 41 | 1000.8 |
| 20260504192640 | 83 | 319 | 1.0 | 5.0 | 0.00 | 0.00 | 0.00 | 39 | 1000.8 |
| 20260504185337 | 81 | 209 | 4.0 | 16.0 | 0.00 | 0.00 | 0.00 | 41 | 1001.1 |
| 20260504184306 | 81 | 178 | 2.0 | 12.0 | 0.00 | 0.00 | 0.00 | 45 | 1001.0 |
| 20260504183320 | 80 | 190 | 3.0 | 12.0 | 0.00 | 0.00 | 0.00 | 43 | 1001.1 |
| 20260504181141 | 79 | 205 | 3.0 | 10.0 | 0.00 | 0.00 | 0.00 | 45 | 1001.2 |
| 20260504180134 | 79 | 205 | 3.0 | 10.0 | 0.00 | 0.00 | 0.00 | 44 | 1001.5 |
| 20260504175059 | 79 | 205 | 2.0 | 8.0 | 0.00 | 0.00 | 0.00 | 43 | 1001.5 |
| 20260504174112 | 79 | 300 | 2.0 | 9.0 | 0.00 | 0.00 | 0.00 | 42 | 1001.5 |
| 20260504173117 | 79 | 204 | 2.0 | 10.0 | 0.00 | 0.00 | 0.00 | 44 | 1001.6 |
| 20260504172123 | 78 | 188 | 1.0 | 10.0 | 0.00 | 0.00 | 0.00 | 44 | 1001.7 |
| 20260504171137 | 77 | 264 | 2.0 | 9.0 | 0.00 | 0.00 | 0.00 | 43 | 1001.8 |
| 20260504170119 | 77 | 269 | 2.0 | 14.0 | 0.00 | 0.00 | 0.00 | 46 | 1001.7 |